Terminal Aerodrome Forecast
Issued by NWS Tulsa, OK

Home | Current Version | Previous Version | Text Only | Print | Product List | Glossary Off
Versions: 1 2 3 4 5 6 7 8 9 10 11 12 13 14 15 16 17 18 19

000
FTUS44 KTSA 181100
TAFFSM
TAF
KFSM 181132Z 1812/1912 05006KT P6SM SCT040 OVC070
      TEMPO 1812/1816 5SM -TSRA BKN040CB
     FM181600 07006KT P6SM SCT040 BKN150
     FM181800 10006KT P6SM VCTS SCT040CB
     FM190000 08003KT P6SM SCT250
     FM190800 08003KT 4SM BR SKC=

USA.gov is the U.S. government's official web portal to all federal, state and local government web resources and services.